Date,TemperatureHighF,TemperatureAvgF,TemperatureLowF,DewpointHighF,DewpointAvgF,DewpointLowF,HumidityHigh,HumidityAvg,HumidityLow,PressureMaxIn,PressureMinIn,WindSpeedMaxMPH,WindSpeedAvgMPH,GustSpeedMaxMPH,PrecipitationSumIn
2013-1-1,44.9,36.4,26.1,44.0,31.2,23.0,97,82,58,30.33,30.02,11,6,15,0.00
2013-1-2,42.8,30.5,21.9,27.4,24.3,19.8,93,79,50,30.39,30.27,7,2,10,0.00
2013-1-3,46.7,34.8,19.5,30.6,24.6,17.8,96,69,40,30.52,30.38,8,2,13,0.00
2013-1-4,43.6,38.1,32.6,36.7,33.1,26.5,97,83,62,30.53,30.37,5,2,11,0.06
2013-1-5,58.0,41.8,28.6,37.4,32.9,24.9,95,74,36,30.38,30.19,8,2,13,0.00
2013-1-6,54.9,38.5,25.7,28.2,24.2,20.8,91,60,29,30.45,30.31,8,3,12,0.00
2013-1-7,52.6,38.3,21.6,34.2,27.7,18.7,94,68,39,30.35,30.09,6,2,13,0.00
2013-1-8,47.4,44.0,35.0,46.6,41.4,30.1,98,91,74,30.10,29.93,11,4,13,0.93
2013-1-9,55.0,51.2,46.0,54.7,50.8,45.5,99,99,98,30.13,29.90,12,6,20,1.78
2013-1-10,55.5,50.0,45.4,54.5,47.4,44.2,99,91,77,29.97,29.88,11,5,17,0.03
2013-1-11,71.5,57.4,45.5,56.4,49.6,41.5,91,76,55,29.91,29.72,14,6,24,0.00
2013-1-12,59.3,47.7,32.3,57.4,37.4,22.4,95,68,48,30.00,29.71,14,7,19,0.00
2013-1-13,39.7,31.1,25.2,22.8,20.2,18.1,79,64,48,30.30,29.98,13,6,18,0.00
2013-1-14,42.9,31.2,23.3,23.8,18.8,15.7,76,61,35,30.36,30.21,9,5,15,0.00
2013-1-15,37.2,31.7,26.2,23.7,21.2,17.4,73,65,55,30.29,30.18,12,6,15,0.00
2013-1-16,49.2,33.0,18.1,28.8,19.0,13.1,88,61,26,30.34,30.20,12,3,17,0.00
2013-1-17,59.2,43.2,28.2,33.8,29.8,22.9,86,62,32,30.51,30.31,7,2,13,0.00
2013-1-18,62.7,43.8,26.1,34.4,30.0,23.8,96,63,30,30.51,30.25,8,2,14,0.00
2013-1-19,66.5,51.5,39.1,40.8,36.5,32.3,79,59,33,30.24,30.10,11,4,19,0.00
2013-1-20,68.3,47.1,30.3,43.3,36.3,29.1,98,71,31,30.21,30.06,5,1,9,0.00
2013-1-21,53.2,41.3,34.1,36.3,30.9,25.6,93,69,41,30.31,30.12,9,3,16,0.00
2013-1-22,68.4,48.4,30.7,46.0,36.5,24.0,87,66,41,30.31,30.14,9,2,16,0.00
2013-1-23,75.0,59.0,46.7,53.9,48.9,43.3,90,72,43,30.25,30.09,9,4,16,0.00
2013-1-24,82.3,61.4,42.7,57.7,49.7,38.4,90,69,29,30.14,29.99,10,4,15,0.00
2013-1-25,51.7,44.0,38.9,42.2,38.5,35.4,91,81,68,30.21,30.00,9,3,12,0.00
2013-1-26,61.7,49.1,33.2,52.0,41.9,31.6,95,78,46,30.21,30.03,5,2,9,0.00
2013-1-27,75.5,62.9,51.9,58.6,55.7,50.5,96,79,51,30.04,29.85,13,6,22,0.00
2013-1-28,80.4,70.3,60.8,63.8,61.6,58.3,94,76,51,29.93,29.73,14,8,22,0.00
2013-1-29,76.3,64.2,49.9,64.9,47.4,20.3,92,60,23,29.75,29.45,20,9,30,0.01
2013-1-30,50.4,41.8,27.6,31.9,21.6,12.5,74,47,23,30.15,29.71,17,9,28,0.00
2013-1-31,66.8,47.5,28.1,28.3,20.4,16.9,67,38,17,30.28,30.10,14,4,22,0.00
2013-2-1,62.7,46.0,29.6,36.6,29.8,23.1,83,56,30,30.35,30.11,9,2,17,0.00
2013-2-2,64.8,51.2,37.3,43.0,33.6,26.9,83,54,25,30.33,30.12,13,4,20,0.00
2013-2-3,68.3,51.2,27.4,36.8,27.6,19.4,94,48,17,30.33,29.94,8,3,17,0.00
2013-2-4,75.8,62.4,52.9,49.3,44.6,35.1,77,54,28,29.95,29.72,9,4,15,0.00
2013-2-5,68.8,53.3,37.1,53.6,44.0,30.9,97,72,52,29.99,29.84,6,2,10,0.00
2013-2-6,75.1,62.3,54.4,58.0,55.6,53.7,98,81,50,29.97,29.76,7,4,17,0.00
2013-2-7,68.6,59.9,48.0,57.9,49.7,39.3,93,72,36,30.14,29.81,16,8,22,0.00
2013-2-8,62.4,49.5,33.9,41.4,27.7,16.1,89,49,17,30.25,30.07,7,3,13,0.00
2013-2-9,60.6,52.9,48.2,59.9,48.3,30.0,98,85,48,30.09,29.65,10,5,19,0.02
2013-2-10,66.1,54.9,40.8,61.4,31.1,16.5,98,47,15,29.98,29.61,12,4,18,0.92
2013-2-11,57.6,50.2,45.0,41.6,34.2,21.3,78,55,32,30.10,29.96,10,5,17,0.00
2013-2-12,52.9,45.4,37.1,48.0,41.8,33.3,97,87,73,30.10,29.84,15,6,20,0.06
2013-2-13,37.8,37.2,35.0,34.3,33.4,31.8,88,86,84,30.11,30.09,12,8,20,0.00
2013-2-20,44.0,42.8,42.0,40.5,39.1,38.2,94,87,80,29.76,29.68,9,7,21,0.14
2013-2-21,64.2,51.1,40.0,48.0,37.1,20.8,98,67,20,29.92,29.54,16,7,25,0.17
2013-2-22,50.6,36.8,26.7,35.3,25.5,20.3,85,65,42,30.14,29.91,9,4,15,0.00
2013-2-23,61.8,41.9,23.5,32.1,27.5,21.6,95,61,27,30.13,29.89,7,2,12,0.00
2013-2-24,71.3,54.0,36.1,49.4,39.8,31.2,84,61,37,29.89,29.52,12,5,22,0.00
2013-2-25,58.0,43.9,36.1,52.6,37.2,29.1,92,78,54,29.81,29.49,21,12,31,0.03
2013-2-26,58.0,43.7,32.6,32.0,28.7,26.2,79,58,31,29.95,29.80,17,6,26,0.00
2013-2-27,53.9,43.7,33.2,30.0,25.8,17.1,84,53,24,30.27,29.84,16,7,25,0.00
2013-2-28,56.0,41.4,27.3,30.0,26.1,22.3,91,59,28,30.34,30.22,12,4,20,0.00
2013-3-1,59.5,42.1,24.0,30.2,25.7,21.0,91,57,24,30.33,30.19,17,4,24,0.00
2013-3-2,60.1,42.3,24.7,32.3,28.6,22.6,94,62,33,30.45,30.22,10,3,18,0.00
2013-3-3,79.2,58.7,36.3,34.2,28.3,22.8,72,38,13,30.22,29.72,13,6,24,0.00
2013-3-4,85.4,69.5,51.4,43.2,28.0,17.6,66,24,11,29.85,29.57,17,7,25,0.00
2013-3-5,54.7,45.2,27.9,39.2,20.4,8.8,70,42,16,30.40,29.84,19,10,30,0.00
2013-3-6,41.1,30.0,20.6,21.7,17.3,14.3,82,60,39,30.45,30.37,7,1,11,0.00
2013-3-10,51.4,44.2,34.9,29.0,26.1,23.2,79,51,37,30.09,29.97,15,4,23,0.01
2013-3-11,66.9,44.7,26.6,27.9,15.1,-99.9,70,39,17,30.17,29.98,10,-43,15,0.00
2013-3-12,70.8,55.2,41.6,34.5,30.1,24.8,62,41,19,30.31,29.97,12,6,21,0.00
2013-3-13,70.5,54.5,37.3,39.3,34.1,26.0,77,48,29,30.42,30.25,7,3,14,0.00
2013-3-14,78.3,64.7,47.1,45.1,41.4,35.0,72,45,27,30.29,30.12,12,6,21,0.00
2013-3-15,83.3,67.0,52.9,51.3,46.4,41.1,84,52,24,30.13,29.83,12,7,20,0.00
2013-3-16,88.7,71.8,57.3,52.3,48.9,43.2,75,48,21,29.83,29.57,13,8,23,0.00
2013-3-17,70.7,59.0,47.9,56.8,43.5,38.7,77,58,37,29.78,29.63,9,4,12,0.00
2013-3-18,68.3,58.8,48.4,48.1,44.2,39.8,91,60,40,29.95,29.64,15,5,23,0.00
2013-3-19,66.6,55.1,43.5,49.7,42.6,35.4,73,63,48,30.10,29.91,10,4,15,0.01
2013-3-20,68.7,55.0,41.7,37.7,32.0,26.9,69,44,22,30.29,29.99,8,3,15,0.00
2013-3-21,77.5,66.3,49.0,57.0,49.7,31.2,74,56,46,29.99,29.44,12,6,23,0.00
2013-3-22,65.3,53.6,45.5,57.2,47.1,40.1,87,79,67,29.77,29.50,16,8,21,0.00
2013-3-23,58.6,52.2,45.8,53.0,49.5,44.7,97,91,79,29.87,29.61,13,3,26,0.68
2013-3-24,50.1,40.9,32.3,45.0,25.7,16.9,91,58,28,30.20,29.86,18,10,33,0.00
2013-3-25,51.4,39.6,23.2,24.7,19.1,14.4,86,47,24,30.42,30.20,10,4,17,0.00
2013-3-26,62.6,44.0,23.1,29.8,21.3,16.8,90,46,18,30.49,30.25,6,2,16,0.00
2013-3-27,71.9,55.7,41.6,45.0,35.0,25.3,64,47,33,30.26,30.02,15,9,29,0.00
2013-3-28,73.5,61.2,47.8,56.5,51.1,44.6,90,70,52,30.13,30.00,11,6,18,0.00
2013-3-29,78.3,66.5,57.2,57.1,56.0,54.5,92,71,46,30.09,29.94,10,6,18,0.00
2013-3-30,84.4,68.9,57.9,62.5,58.6,55.1,92,72,40,30.03,29.78,9,5,17,0.05
2013-3-31,76.0,67.2,57.4,60.5,55.4,50.3,88,68,44,29.95,29.76,15,5,24,0.00
2013-4-1,82.8,66.1,47.0,58.3,51.7,45.0,97,64,33,30.03,29.83,17,3,28,0.42
2013-4-2,63.6,55.0,44.7,61.7,53.0,43.6,98,93,83,30.01,29.83,14,6,54,2.15
2013-4-3,47.4,43.7,41.6,46.9,42.7,40.8,98,97,92,30.19,29.91,14,8,21,0.66
2013-4-4,50.7,42.7,38.7,42.2,38.9,36.1,96,87,71,30.25,30.15,12,7,17,0.00
2013-4-5,70.0,57.3,34.9,48.8,44.6,34.1,98,65,44,30.25,29.97,8,3,16,0.01
2013-4-6,81.7,65.7,53.9,57.7,51.1,47.1,79,62,38,29.97,29.74,14,8,23,0.00
2013-4-7,80.5,68.0,55.9,64.4,60.0,54.4,95,77,57,29.80,29.61,12,8,20,0.00
2013-4-8,76.3,68.9,63.7,66.0,62.4,59.9,88,80,68,29.67,29.52,13,9,22,0.00
2013-4-10,46.6,38.9,32.0,38.0,34.5,29.3,95,85,71,30.01,29.76,18,10,24,0.12
2013-4-11,66.4,49.8,35.7,40.7,35.3,29.5,90,61,31,30.04,29.80,5,2,9,0.00
2013-4-12,78.1,60.2,40.3,48.3,42.9,38.0,93,58,26,29.96,29.80,8,2,11,0.00
2013-4-13,78.6,65.6,52.1,47.7,44.3,38.5,82,49,26,29.89,29.70,9,5,14,0.00
2013-4-14,91.9,71.5,54.6,58.7,47.6,31.4,91,51,12,29.73,29.45,11,5,20,0.00
2013-4-15,69.7,65.4,63.1,56.5,52.1,44.8,76,63,41,29.58,29.52,5,2,9,0.00
2013-4-18,56.3,47.8,41.5,48.9,37.2,31.0,97,69,42,30.16,29.59,21,11,32,0.46
2013-4-19,65.4,48.7,35.5,32.3,27.8,21.3,83,49,19,30.32,30.13,12,4,18,0.00
2013-4-20,70.8,56.9,42.0,36.2,32.1,27.3,71,42,22,30.16,29.92,12,6,21,0.00
2013-4-21,73.0,59.9,48.0,53.1,48.4,35.9,89,67,46,30.12,29.98,9,5,17,0.00
2013-4-22,81.4,67.0,54.6,59.8,55.5,50.8,93,69,44,30.05,29.74,13,7,22,0.00
2013-4-23,68.0,49.5,39.5,58.8,42.7,33.8,87,78,67,30.21,29.69,14,9,21,0.00
2013-4-24,60.9,50.6,37.3,36.9,32.3,28.6,82,52,31,30.35,30.20,13,5,19,0.00
2013-4-25,72.9,60.0,49.2,46.1,40.2,35.7,71,50,28,30.33,30.07,8,3,13,0.00
2013-4-26,80.3,67.8,58.6,63.3,56.6,45.8,85,68,54,30.10,29.90,13,6,22,0.00
2013-4-27,78.6,66.9,53.8,63.7,55.2,43.6,90,69,30,30.08,29.93,8,4,15,0.00
2013-4-28,87.8,69.1,48.4,63.7,54.5,46.9,98,66,26,29.99,29.77,6,2,14,0.00
2013-4-29,86.4,73.5,61.4,64.6,58.9,51.0,92,64,31,29.83,29.68,8,5,15,0.00
2013-4-30,86.1,71.6,59.3,64.0,60.3,57.4,97,70,40,29.74,29.62,8,5,15,0.00
2013-5-1,86.1,72.5,62.8,67.0,63.3,54.6,94,74,49,29.94,29.68,9,4,14,0.00
2013-5-2,63.9,44.2,37.0,53.9,39.4,33.8,94,84,66,30.40,29.94,17,10,26,0.01
2013-5-3,65.0,49.8,35.7,34.0,28.6,21.4,82,50,19,30.40,30.01,11,5,25,0.00
2013-5-4,45.2,44.9,44.5,31.2,30.5,29.9,59,57,56,30.01,30.01,1,0,1,0.00
2013-6-3,89.1,81.1,76.9,61.6,58.7,56.9,57,47,40,29.79,29.75,4,2,10,0.00
2013-6-4,92.6,80.7,68.8,69.9,65.4,60.4,84,62,40,29.83,29.66,13,5,19,0.02
2013-6-5,92.8,80.3,69.6,69.2,65.2,62.6,86,62,37,29.84,29.65,16,4,23,0.02
2013-6-6,80.1,73.2,65.3,66.6,63.7,61.4,93,73,56,29.91,29.71,12,4,18,0.08
2013-6-7,84.2,72.2,58.9,64.3,57.6,51.2,97,65,37,29.98,29.83,6,1,11,0.00
2013-6-8,88.4,74.4,56.7,64.5,57.6,52.5,89,59,37,29.91,29.69,8,3,14,0.00
2013-6-9,88.6,75.7,63.7,70.4,64.9,60.4,98,72,43,29.89,29.75,17,2,26,0.78
2013-6-10,95.5,80.2,64.1,71.1,63.4,54.8,97,62,27,29.93,29.83,7,2,14,0.00
2013-6-11,92.4,81.4,68.6,73.1,67.2,57.8,91,64,43,29.94,29.83,8,3,16,0.00
2013-6-12,93.2,83.7,71.7,71.0,68.4,65.3,91,62,44,29.97,29.84,10,5,18,0.00
2013-6-13,95.8,83.4,70.5,72.6,68.0,63.3,91,63,37,29.99,29.82,6,3,12,0.00
2013-6-14,90.6,78.5,67.3,70.4,66.1,62.2,89,68,45,29.93,29.83,7,1,12,0.00
2013-6-15,86.1,78.0,72.8,72.7,70.1,67.7,91,77,59,29.94,29.81,5,1,8,0.04
2013-6-16,95.0,81.7,68.6,73.0,68.4,65.1,94,67,38,29.97,29.78,7,2,16,0.00
2013-6-17,94.6,81.4,67.9,73.9,69.7,65.8,95,69,46,29.95,29.68,12,4,17,0.02
2013-6-18,90.9,78.3,65.7,73.5,65.0,62.1,90,66,41,29.95,29.83,19,3,26,0.00
2013-6-19,97.0,78.0,67.2,72.7,68.3,62.5,95,75,38,29.98,29.75,22,3,32,0.28
2013-6-20,94.0,81.2,69.6,71.2,67.6,64.2,93,66,42,29.95,29.81,9,5,18,0.00
2013-6-21,95.7,83.5,73.3,71.8,66.2,61.0,88,59,35,29.96,29.84,9,6,17,0.00
2013-6-22,94.8,83.0,72.1,70.5,64.8,60.5,83,57,35,29.92,29.77,10,5,19,0.00
2013-6-23,95.2,83.2,71.9,67.8,63.0,55.4,83,53,28,29.88,29.77,10,5,21,0.00
2013-6-24,95.1,82.7,71.1,69.3,65.3,59.8,85,58,36,29.92,29.77,11,6,21,0.00
2013-6-25,96.8,82.6,74.6,71.5,68.0,62.9,82,63,36,29.87,29.75,11,7,21,0.00
2013-6-26,97.9,87.8,75.4,72.9,69.0,63.0,80,55,40,29.84,29.74,9,5,16,0.00
2013-6-27,102.1,87.5,73.4,71.3,64.3,56.8,82,50,23,29.93,29.78,7,3,12,0.00
2013-6-28,102.2,87.2,68.4,67.4,61.2,57.0,75,45,24,29.90,29.74,8,3,16,0.00
2013-6-29,98.9,85.4,67.6,68.7,62.5,57.6,88,51,27,29.86,29.71,6,2,11,0.00
2013-6-30,91.3,82.0,72.0,63.5,58.0,53.6,70,46,31,29.89,29.77,8,3,14,0.00
2013-7-1,85.1,75.5,63.4,57.5,52.6,48.5,73,47,30,30.01,29.88,12,4,21,0.00
2013-7-2,87.1,73.8,53.8,54.4,47.6,40.2,89,44,21,30.07,29.94,9,2,19,0.00
2013-7-3,91.2,74.5,53.3,54.3,48.0,44.6,85,44,21,30.02,29.87,6,1,11,0.00
2013-7-4,96.6,81.9,68.5,59.0,52.1,44.8,66,39,19,29.92,29.79,5,2,13,0.00
2013-7-5,97.7,83.3,68.1,60.6,55.2,48.2,74,42,19,29.90,29.75,7,3,18,0.00
2013-7-6,97.3,84.1,72.2,65.5,59.6,55.2,72,46,25,29.86,29.74,7,4,15,0.00
2013-7-7,97.5,84.8,73.8,69.5,63.2,57.4,77,51,30,29.91,29.81,6,3,12,0.00
2013-7-8,97.0,83.9,73.9,73.0,68.9,62.0,88,63,36,29.99,29.88,9,4,17,0.00
2013-7-9,98.6,85.6,73.9,71.9,65.8,60.4,86,55,31,30.03,29.89,8,4,15,0.00
2013-7-10,101.3,86.6,75.1,71.5,64.8,59.4,79,51,26,29.99,29.81,6,2,11,0.00
2013-7-11,83.6,81.3,79.5,63.8,63.1,62.3,58,54,49,29.89,29.87,3,1,7,0.00
2013-7-13,102.4,93.3,72.9,66.1,61.7,58.3,74,37,25,29.90,29.76,4,2,12,0.00
2013-7-14,86.7,83.4,79.0,61.5,60.7,59.8,52,47,41,29.84,29.80,5,2,10,0.00
2013-7-16,72.3,72.2,72.2,70.2,70.1,70.1,93,93,93,30.12,30.11,1,1,10,0.39
2013-7-17,78.6,72.4,68.9,74.8,70.6,67.6,98,94,80,30.17,30.08,8,2,16,0.64
2013-7-18,89.7,77.8,67.8,73.5,68.3,64.0,99,76,44,30.15,29.96,6,1,13,0.00
2013-7-19,92.7,81.0,68.6,72.7,67.4,62.1,94,67,37,30.00,29.84,5,1,10,0.00
2013-7-20,93.8,81.4,70.7,71.8,69.4,65.5,93,69,42,29.91,29.76,7,3,12,0.00
2013-7-21,94.5,83.1,72.7,72.4,69.8,65.8,90,67,41,29.86,29.75,8,3,13,0.00
2013-7-22,94.1,83.4,74.2,74.9,71.9,67.1,94,70,42,29.89,29.76,7,3,12,0.00
2013-7-23,94.7,85.1,76.2,75.7,72.1,66.3,89,67,48,29.88,29.74,8,4,13,0.00
2013-7-24,96.2,84.2,75.2,75.4,70.8,66.2,85,65,40,29.94,29.78,6,2,11,0.00
2013-7-25,92.0,81.2,72.3,76.2,72.6,64.5,93,76,54,29.97,29.88,10,2,18,0.25
2013-7-26,94.9,82.6,76.6,75.2,71.5,68.3,89,70,46,29.95,29.82,11,4,18,0.02
2013-7-27,89.0,77.2,68.8,69.1,65.1,53.9,94,69,32,29.97,29.85,7,3,14,0.00
2013-7-28,91.9,78.6,65.1,70.7,66.4,62.7,96,69,41,29.92,29.78,4,2,9,0.00
2013-7-29,97.0,84.7,76.1,74.7,70.1,62.6,86,64,37,29.89,29.80,8,4,15,0.00
2013-7-30,97.4,85.2,76.9,72.4,69.8,63.8,82,62,39,29.98,29.86,8,3,16,0.00
2013-7-31,100.1,83.9,75.9,79.7,70.6,65.3,94,67,38,29.99,29.85,11,1,18,0.54
2013-8-1,100.2,85.3,76.2,80.2,73.9,66.7,93,71,38,29.94,29.81,10,0,17,0.32
2013-8-2,98.8,86.4,75.8,70.7,67.4,64.7,76,55,35,29.87,29.77,6,2,14,0.00
2013-8-3,98.1,85.3,74.4,71.3,66.9,64.4,77,56,34,29.91,29.83,6,3,12,0.00
2013-8-4,98.2,85.0,74.5,71.5,67.8,63.2,82,59,32,29.99,29.83,6,2,13,0.00
2013-8-5,98.9,84.7,76.8,69.8,67.4,62.6,78,59,33,29.92,29.81,7,3,13,0.00
2013-8-6,101.9,90.7,75.4,71.4,66.9,62.5,82,49,29,29.82,29.68,8,4,17,0.00
2013-8-7,104.4,90.2,77.9,70.9,66.8,63.2,74,49,28,29.79,29.65,7,4,15,0.00
2013-8-8,97.8,82.5,73.0,73.5,68.0,64.0,89,63,36,29.81,29.68,12,2,17,0.13
2013-8-9,100.8,84.8,73.9,73.6,68.0,62.7,90,61,30,29.92,29.75,8,2,15,0.02
2013-8-10,94.7,83.1,73.2,74.6,69.5,66.1,92,66,40,30.01,29.89,8,3,14,0.00
2013-8-11,100.4,85.5,70.8,71.6,67.6,63.7,86,58,32,30.00,29.87,9,2,17,0.00
2013-8-12,97.6,84.7,73.2,70.5,67.6,65.2,85,59,37,29.97,29.83,6,2,11,0.00
2013-8-13,99.8,85.4,74.6,71.5,67.9,63.3,77,58,31,29.95,29.81,10,3,20,0.00
2013-8-14,89.3,80.2,73.4,72.5,69.6,64.9,91,72,46,29.97,29.86,7,4,12,0.00
2013-8-15,90.0,78.9,70.0,72.4,70.1,68.2,95,76,53,29.96,29.87,5,1,11,0.00
2013-8-16,85.6,73.4,63.0,69.6,66.3,62.0,98,81,48,30.06,29.89,17,2,21,0.65
2013-8-17,88.7,76.4,63.7,66.8,63.5,59.8,94,67,43,30.04,29.91,4,1,9,0.00
2013-8-18,89.7,77.3,62.7,63.7,61.3,59.0,90,60,39,30.04,29.92,4,1,9,0.00
2013-8-19,93.8,79.9,64.6,63.0,61.0,58.6,88,55,33,30.01,29.86,6,2,12,0.00
2013-8-20,94.2,81.9,70.6,67.6,61.1,56.2,76,52,29,29.96,29.87,6,2,11,0.00
2013-8-21,92.7,80.4,66.3,69.5,64.5,56.5,89,61,39,30.01,29.90,6,2,11,0.00
2013-8-22,96.3,83.9,71.0,70.6,66.5,62.4,88,59,35,30.02,29.85,7,2,12,0.00
2013-8-23,96.8,82.4,68.7,70.9,67.1,64.4,89,62,38,29.95,29.82,6,1,11,0.00
2013-8-24,97.2,82.8,69.0,69.9,66.1,62.3,88,60,33,29.99,29.89,8,2,16,0.00
2013-8-25,94.9,84.2,72.3,71.5,66.4,62.4,83,57,36,30.06,29.95,7,2,16,0.00
2013-8-26,93.2,82.3,72.2,70.1,66.3,63.8,83,60,41,30.08,29.96,6,2,13,0.00
2013-8-27,84.8,75.2,69.1,72.2,69.3,66.6,94,82,63,30.06,29.95,8,2,12,0.49
2013-8-28,95.1,80.7,69.7,71.9,66.7,61.7,95,67,35,30.05,29.93,5,1,10,0.00
2013-8-29,98.1,82.0,66.9,70.2,65.4,62.4,93,62,33,30.03,29.89,3,0,9,0.00
2013-8-30,100.5,83.6,67.0,69.3,63.5,57.5,94,57,25,29.96,29.81,2,0,7,0.00
2013-8-31,103.3,86.0,68.3,66.8,62.5,59.0,84,50,24,29.84,29.71,4,0,8,0.00
2013-9-1,102.6,87.8,71.3,67.5,64.3,60.7,79,48,27,29.82,29.70,5,1,8,0.00
2013-9-2,90.0,78.6,69.8,70.5,68.1,64.3,91,72,47,29.94,29.76,7,2,14,0.57
2013-9-3,97.1,81.6,69.4,71.2,64.9,54.0,95,62,28,29.96,29.82,4,1,8,0.00
2013-9-4,99.0,82.2,65.8,66.1,57.7,46.1,82,48,18,29.99,29.88,4,1,11,0.00
2013-9-5,98.5,83.8,71.6,70.9,66.9,61.1,87,60,31,30.03,29.92,7,2,11,0.00
2013-9-6,97.0,82.5,68.8,71.4,65.6,60.3,94,61,31,30.03,29.88,5,1,12,0.00
2013-9-7,95.8,82.8,70.8,69.9,65.0,61.5,83,57,33,29.97,29.84,6,2,10,0.00
2013-9-8,94.0,80.3,66.4,71.2,65.9,62.0,95,65,36,29.91,29.79,7,2,11,0.00
2013-9-9,91.6,79.1,66.4,70.7,66.1,62.6,96,68,40,29.93,29.81,8,3,17,0.00
2013-9-10,91.4,78.3,70.2,70.7,67.4,64.5,94,71,42,30.02,29.91,8,3,15,0.00
2013-9-11,93.2,79.0,67.7,71.8,65.0,59.7,95,66,34,30.07,29.93,7,2,14,0.00
2013-9-12,90.8,79.7,64.7,74.6,66.0,59.4,87,64,45,30.02,29.88,8,1,10,0.08
2013-9-13,96.2,81.2,67.4,68.4,64.6,61.5,93,61,33,29.92,29.76,7,1,10,0.00
2013-9-14,94.3,82.4,68.6,69.2,66.1,61.3,91,61,37,29.88,29.76,5,2,12,0.00
2013-9-15,93.0,81.7,71.4,69.3,65.8,63.6,84,60,40,29.95,29.85,6,2,12,0.00
2013-9-16,93.6,82.3,74.5,70.1,64.3,58.6,78,57,34,30.01,29.89,7,2,12,0.00
2013-9-17,88.0,78.3,69.9,70.5,65.2,58.5,92,66,45,30.01,29.88,5,1,7,0.01
2013-9-18,95.4,83.2,73.1,70.3,63.3,56.0,84,55,28,29.95,29.79,8,2,13,0.00
2013-9-19,80.2,76.0,70.8,72.2,68.1,61.3,96,77,60,29.92,29.82,5,2,8,0.23
2013-9-20,71.0,68.8,65.8,69.8,67.7,64.6,98,96,95,29.92,29.82,10,4,15,2.07
2013-9-21,80.3,67.0,55.5,65.4,54.2,45.7,96,68,31,29.99,29.85,8,3,15,0.01
2013-9-22,82.6,66.1,50.1,59.5,52.0,48.1,98,66,31,29.91,29.76,4,1,9,0.00
2013-9-23,86.3,69.8,52.6,56.5,52.8,48.1,95,59,28,29.80,29.69,8,2,15,0.00
2013-9-24,90.5,73.9,59.1,62.1,56.5,52.3,86,58,32,29.90,29.78,6,1,11,0.00
2013-9-25,91.8,73.8,55.1,63.1,58.7,53.3,97,64,35,29.86,29.70,6,2,12,0.00
2013-9-26,90.0,76.9,65.4,62.7,58.4,52.8,82,56,30,29.82,29.72,8,3,15,0.00
2013-9-27,79.0,74.3,69.0,72.5,66.4,57.3,86,77,67,29.81,29.76,6,3,10,0.00
2013-9-28,78.6,69.6,60.9,73.5,66.7,58.1,95,91,79,30.03,29.75,11,5,18,0.10
2013-9-29,78.1,65.8,52.7,58.5,52.5,43.8,89,66,32,30.07,29.91,7,2,14,0.00
2013-9-30,87.4,67.2,47.7,60.9,53.4,46.9,98,67,32,29.92,29.76,6,2,11,0.00
2013-10-1,89.1,74.6,62.3,69.1,60.3,53.0,80,63,37,29.85,29.77,8,3,16,0.00
2013-10-2,89.5,77.2,68.4,71.9,67.9,62.6,97,75,47,29.89,29.76,7,3,15,0.00
2013-10-3,91.4,79.6,71.5,72.1,68.4,63.1,96,72,40,29.83,29.69,10,6,19,0.00
2013-10-4,89.5,78.0,68.9,69.6,67.6,66.1,92,72,49,29.81,29.71,10,5,18,0.00
2013-10-5,76.8,59.4,47.2,70.1,52.0,36.2,96,78,42,30.11,29.77,11,5,19,0.54
2013-10-6,73.3,56.2,42.9,48.0,40.5,30.8,98,65,21,30.19,30.07,10,3,17,0.01
2013-10-7,83.7,61.2,43.1,51.5,44.2,38.3,97,62,23,30.16,30.03,4,1,9,0.00
2013-10-8,84.4,65.4,48.6,49.9,46.0,42.0,88,54,23,30.06,29.91,7,2,12,0.00
2013-10-9,83.2,67.4,50.6,55.6,50.1,44.8,83,56,32,30.00,29.88,8,3,17,0.00
2013-10-10,82.3,72.9,60.6,64.3,61.1,55.0,93,68,51,29.97,29.78,8,5,16,0.00
2013-10-11,87.6,75.3,67.0,69.4,65.7,61.3,93,74,47,29.84,29.73,9,4,19,0.00
2013-10-12,89.6,76.8,69.5,73.6,65.0,51.6,95,71,34,29.98,29.81,6,2,9,0.00
2013-10-13,76.7,71.6,68.3,66.9,65.8,64.3,92,82,68,30.14,29.98,6,2,15,0.00
2013-10-14,78.3,70.9,66.6,71.1,68.5,65.7,98,92,76,30.07,29.83,8,3,13,0.90
2013-10-15,71.2,60.1,49.2,70.0,59.0,48.2,97,96,94,30.08,29.82,10,5,17,0.93
2013-10-16,61.8,54.4,49.3,50.7,47.7,43.7,97,79,57,30.13,30.02,8,4,16,0.06
2013-10-17,71.1,54.1,39.4,49.3,44.6,38.3,98,74,41,30.13,29.96,4,1,7,0.00
2013-10-18,67.1,55.8,44.7,59.8,51.5,41.6,94,86,77,30.15,29.87,16,4,27,0.01
2013-10-19,64.8,49.1,38.1,41.5,38.6,34.1,94,71,34,30.24,30.08,11,3,19,0.00
2013-10-20,74.1,56.6,39.5,55.7,47.1,37.8,96,73,50,30.08,29.82,9,3,16,0.00
2013-10-21,63.2,57.0,46.5,55.8,51.7,44.1,92,83,74,30.12,29.84,9,3,15,0.00
2013-10-22,75.2,54.6,36.7,50.5,42.6,35.9,98,70,29,30.19,30.05,3,0,7,0.00
2013-10-23,80.9,61.3,43.2,52.3,44.8,40.3,94,61,24,30.13,30.02,4,1,14,0.00
2013-10-24,80.2,60.9,44.3,52.2,46.2,42.2,96,65,28,30.23,30.07,3,0,7,0.00
2013-10-25,73.6,59.2,45.6,56.6,50.3,41.3,86,73,53,30.33,30.18,4,1,9,0.00
2013-10-26,76.5,63.4,56.9,67.4,59.4,53.3,95,87,63,30.19,29.98,7,2,13,0.14
2013-10-27,69.2,59.9,55.9,58.8,56.8,53.7,98,90,66,30.11,29.97,7,1,9,0.01
2013-10-28,75.3,66.2,56.0,67.8,63.2,55.2,98,90,77,30.03,29.91,8,4,16,0.00
2013-10-29,79.3,72.1,66.8,70.1,67.3,63.8,94,85,72,29.97,29.88,9,5,15,0.00
2013-10-30,74.2,70.1,65.1,70.7,67.5,63.0,96,92,86,29.92,29.70,10,4,19,0.06
2013-10-31,70.5,63.5,47.1,67.3,48.9,35.2,97,64,34,29.84,29.65,13,4,23,0.01
2013-11-1,69.8,57.3,44.0,45.4,41.4,35.3,93,60,29,30.13,29.80,13,3,22,0.00
2013-11-2,67.0,53.3,40.4,38.3,35.5,30.4,82,54,26,30.32,30.13,6,2,13,0.00
2013-11-3,67.3,53.0,36.8,44.7,38.7,33.5,91,61,35,30.21,29.91,9,4,18,0.00
2013-11-4,61.7,58.4,53.5,58.7,54.1,43.0,96,86,64,30.00,29.91,7,4,13,0.01
2013-11-5,67.3,63.8,59.7,65.0,62.6,58.6,98,96,91,29.97,29.86,7,3,14,0.19
2013-11-6,65.1,51.1,38.2,64.8,42.2,32.8,99,74,40,30.36,29.92,15,5,25,0.04
2013-11-7,62.9,45.6,28.2,42.3,34.2,27.0,97,69,31,30.52,30.36,4,1,9,0.00
2013-11-8,63.2,50.3,35.3,43.4,37.6,28.7,97,66,29,30.41,30.08,10,3,18,0.00
2013-11-9,72.0,58.9,48.8,55.4,48.1,39.0,94,69,50,30.15,30.02,8,4,15,0.00
2013-11-10,68.8,56.9,48.2,59.5,53.8,46.6,98,90,66,30.30,30.14,5,1,8,0.00
2013-11-11,72.7,56.2,41.5,58.4,51.0,40.9,99,84,57,30.27,30.14,5,1,10,0.01
2013-11-12,56.4,42.9,29.7,54.4,27.5,16.5,98,58,30,30.70,30.27,12,6,20,0.00
2013-11-13,54.7,35.3,15.9,27.2,21.0,13.5,93,60,28,30.70,30.39,4,1,9,0.00
2013-11-14,60.9,48.3,30.6,40.9,31.5,24.7,84,55,31,30.39,29.97,8,4,17,0.00
2013-11-15,75.5,58.4,43.2,55.2,46.6,40.0,90,68,34,29.97,29.78,7,4,13,0.00
2013-11-16,81.0,65.7,54.7,62.4,57.9,52.2,94,78,47,29.81,29.60,11,5,21,0.00
2013-11-17,84.5,70.8,55.2,62.5,46.4,36.1,94,48,19,29.96,29.67,10,4,19,0.00
2013-11-18,70.2,60.8,55.0,39.2,32.5,27.1,48,35,25,30.14,29.96,7,4,12,0.00
2013-11-19,70.6,59.0,51.3,43.9,40.1,33.9,62,50,36,30.12,29.92,7,3,12,0.00
2013-11-20,69.0,59.4,52.6,59.6,52.3,42.3,90,78,62,29.94,29.80,10,7,19,0.00
2013-11-21,79.8,63.6,36.9,67.7,58.6,34.8,95,85,63,30.23,29.86,14,5,25,0.00
2013-11-22,36.8,30.9,29.0,34.7,28.8,25.6,96,92,86,30.53,30.23,14,7,23,0.02
2013-11-23,34.9,31.8,29.0,33.1,29.5,26.4,96,92,74,30.60,30.49,8,5,14,0.00
2013-11-24,34.1,31.4,29.1,29.2,27.4,24.5,94,85,72,30.59,30.32,10,4,15,0.01
2013-11-25,36.0,33.2,30.2,33.9,31.7,28.8,96,94,91,30.35,30.16,7,2,11,0.16
2013-11-26,49.4,39.1,32.5,34.2,30.1,24.3,96,73,41,30.42,30.22,16,8,23,0.01
2013-11-27,36.9,28.8,20.8,27.8,21.7,17.5,93,75,45,30.51,30.36,9,2,16,0.00
2013-11-28,57.6,40.4,25.3,30.3,26.4,22.0,90,60,31,30.43,30.32,6,2,12,0.00
2013-11-29,60.7,44.6,27.4,44.3,34.0,24.0,92,69,37,30.49,30.31,8,3,13,0.00
2013-11-30,66.9,53.3,42.1,52.8,48.3,41.0,98,84,60,30.32,30.11,10,4,24,0.00
2013-12-1,63.2,55.9,48.7,56.1,52.2,47.6,97,88,76,30.14,29.89,8,3,15,0.00
2013-12-2,70.7,49.5,36.7,47.9,37.8,32.4,99,71,27,29.90,29.66,7,1,12,0.01
2013-12-3,82.9,58.1,38.3,39.1,34.0,25.1,86,48,12,29.66,29.51,11,2,16,0.00
2013-12-4,79.1,60.1,44.1,50.4,42.6,32.7,67,54,33,29.87,29.57,12,4,17,0.00
2013-12-5,43.9,29.4,21.6,32.9,19.9,12.5,93,69,47,30.23,29.87,14,9,21,0.00
2013-12-6,26.2,22.6,20.2,20.3,18.0,14.4,92,83,74,30.58,30.16,14,8,26,0.00
2013-12-7,21.1,18.8,15.0,15.3,12.1,8.2,80,75,68,30.60,30.31,9,4,13,0.00
2013-12-8,41.7,29.3,20.5,30.4,23.7,15.5,92,80,63,30.31,30.05,6,2,12,0.12
2013-12-9,29.8,27.4,23.1,28.3,25.5,18.9,97,93,83,30.48,30.11,10,5,17,0.00
2013-12-10,40.7,26.4,10.8,22.3,17.8,8.9,94,72,41,30.57,30.35,7,2,10,0.04
2013-12-11,45.3,34.7,25.5,28.9,25.8,20.8,85,71,48,30.62,30.33,9,2,14,0.04
2013-12-12,45.1,34.1,19.9,33.3,26.9,18.3,96,76,52,30.62,30.27,5,1,8,0.00
2013-12-13,57.3,46.1,39.2,48.2,40.0,32.7,94,80,69,30.28,29.78,10,4,16,0.00
2013-12-14,50.4,39.1,25.2,42.6,31.8,22.7,93,76,54,30.37,29.81,19,8,26,0.00
2013-12-15,61.2,38.6,21.9,35.3,26.9,20.7,96,69,29,30.40,30.25,6,1,10,0.00
2013-12-16,67.3,46.8,33.0,35.1,31.0,26.7,80,58,27,30.26,30.13,7,2,12,0.00
2013-12-17,71.8,48.0,29.1,38.3,32.8,26.3,93,62,23,30.31,30.19,3,0,8,0.00
2013-12-18,68.8,51.1,33.9,47.9,40.9,31.1,94,71,38,30.26,29.95,10,4,16,0.00
2013-12-19,71.0,59.3,50.2,55.7,52.4,45.9,93,79,58,29.94,29.69,14,7,21,0.00
2013-12-20,60.5,45.1,30.8,59.8,43.7,29.8,98,95,86,29.85,29.69,13,5,19,0.09
2013-12-21,50.3,40.4,32.8,42.2,38.2,32.0,99,93,67,29.82,29.60,8,3,13,1.79
2013-12-22,42.5,34.7,28.1,37.9,28.3,24.3,96,78,55,30.40,29.80,14,6,21,0.00
2013-12-23,52.3,32.5,19.4,29.5,24.7,18.0,96,76,40,30.55,30.38,4,1,7,0.00
2013-12-24,58.8,41.2,26.4,35.9,29.9,23.1,94,68,35,30.55,30.21,12,4,20,0.00
2013-12-25,46.3,37.7,30.5,35.3,30.9,25.4,93,77,57,30.44,30.21,10,4,17,0.00
2013-12-26,53.7,36.6,22.9,35.2,25.8,21.0,97,70,31,30.48,30.35,4,0,8,0.00
2013-12-27,54.5,38.4,22.7,34.2,25.6,20.1,94,65,26,30.48,30.34,3,0,6,0.00
2013-12-28,59.0,44.8,30.0,47.3,39.0,27.4,93,81,63,30.34,29.95,8,2,13,0.00
2013-12-29,47.0,36.2,26.2,44.8,34.1,23.4,95,92,87,30.34,29.91,12,6,20,0.00
2013-12-30,48.7,30.8,20.2,25.8,22.4,17.1,91,73,40,30.45,30.28,6,2,11,0.00
2013-12-31,57.3,37.1,19.0,32.5,26.7,17.3,96,70,37,30.47,30.17,6,2,11,0.00
2014-1-1,69.1,47.8,32.6,43.3,35.0,24.1,88,65,33,30.27,29.88,15,7,23,0.00
2014-1-2,42.6,30.1,23.0,24.2,19.6,16.7,81,66,39,30.51,30.26,14,5,21,0.00